Preview of NWS' New Version of Forecast
This preview is not operational and should not be used for support decisions.

Terminal Aerodrome Forecast (TAF)

Issued by National Weather Service (NWS)

                            
000
FTUS42 KCAE 231734
TAFOGB
TAF
KOGB 231734Z 2318/2418 VRB04KT P6SM SKC
      TEMPO 2408/2412 3SM BR=